Time;durP1;ratioP1;P1;durP2;ratioP2;P2;SDS_P1;SDS_P2;PMS_P1;PMS_P2;Temp;Humidity;BMP_temperature;BMP_pressure;BME280_temperature;BME280_humidity;BME280_pressure;Samples;Min_cycle;Max_cycle;Signal;HPM_P1;HPM_P2
2023/03/09 09:46:15;;;;;;;23.48;7.35;;;;;;;19.84;45.51;99463.34;5113765;27;20441;-48
2023/03/09 09:48:44;;;;;;;23.23;8.23;;;;;;;20.87;42.79;99464.69;5104951;28;20489;-48
2023/03/09 09:51:19;;;;;;;29.73;8.07;;;;;;;21.68;41.16;99458.69;5107365;28;20052;-50
2023/03/09 09:54:06;;;;;;;22.02;7.93;;;;;;;22.24;39.89;99457.69;5106474;28;20493;-50
2023/03/09 09:56:56;;;;;;;22.88;7.38;;;;;;;22.58;38.97;99458.44;5101037;28;20504;-48
2023/03/09 09:59:34;;;;;;;23.45;7.53;;;;;;;22.76;38.58;99454.00;5106270;28;20024;-51
2023/03/09 10:02:11;;;;;;;22.15;7.55;;;;;;;23.00;38.15;99454.72;5107713;28;20093;-48
2023/03/09 10:04:45;;;;;;;29.33;8.50;;;;;;;23.11;37.78;99452.91;5103236;28;20393;-49
2023/03/09 10:07:16;;;;;;;21.00;7.53;;;;;;;23.19;37.40;99445.84;5104188;28;20020;-49
2023/03/09 10:09:47;;;;;;;23.63;7.45;;;;;;;23.15;37.62;99446.78;5101831;28;20024;-50
2023/03/09 10:12:17;;;;;;;29.15;8.45;;;;;;;23.15;37.31;99451.13;5090585;28;20032;-49
2023/03/09 10:14:49;;;;;;;24.10;8.20;;;;;;;23.10;37.85;99440.69;5095598;28;20081;-50
2023/03/09 10:17:20;;;;;;;24.90;8.00;;;;;;;23.19;37.49;99448.47;5092021;28;20032;-50
2023/03/09 10:19:48;;;;;;;21.20;7.45;;;;;;;23.15;37.66;99452.00;5091123;28;20063;-50
2023/03/09 10:22:23;;;;;;;20.00;7.60;;;;;;;23.05;37.50;99448.59;5107024;28;20020;-50
2023/03/09 10:24:53;;;;;;;22.00;7.80;;;;;;;23.15;37.62;99448.50;5104948;28;20035;-52
2023/03/09 10:27:27;;;;;;;23.02;7.13;;;;;;;23.11;37.47;99444.16;5107877;28;20473;-49
2023/03/09 10:29:59;;;;;;;27.20;8.17;;;;;;;23.17;37.61;99441.50;5107870;28;20032;-48
2023/03/09 10:32:50;;;;;;;24.40;7.50;;;;;;;23.25;37.48;99454.56;5109173;28;20028;-52
2023/03/09 10:35:56;;;;;;;25.85;8.32;;;;;;;23.32;37.37;99449.28;5105128;28;20032;-48
2023/03/09 10:38:23;;;;;;;25.13;7.97;;;;;;;23.19;37.13;99440.59;5098538;28;20047;-49
2023/03/09 10:40:54;;;;;;;23.63;7.53;;;;;;;23.16;37.28;99439.78;5108915;28;20081;-49
2023/03/09 10:43:32;;;;;;;23.05;7.22;;;;;;;23.35;36.96;99437.91;5108935;28;20047;-49
2023/03/09 10:46:20;;;;;;;23.63;6.95;;;;;;;23.26;37.37;99436.22;5105024;28;20501;-52
2023/03/09 10:48:48;;;;;;;25.27;7.75;;;;;;;23.26;37.42;99431.00;5104508;28;20040;-49
2023/03/09 10:51:36;;;;;;;23.83;7.95;;;;;;;23.26;37.43;99431.00;5107128;28;20026;-51
2023/03/09 10:54:23;;;;;;;20.73;7.25;;;;;;;23.26;37.45;99422.28;5107316;28;20437;-49
2023/03/09 10:56:52;;;;;;;25.02;7.68;;;;;;;23.24;37.32;99418.81;5094307;28;20036;-52
2023/03/09 10:59:22;;;;;;;141.60;93.38;;;;;;;23.32;37.41;99409.16;5094977;28;20032;-50
2023/03/09 11:01:54;;;;;;;208.27;142.65;;;;;;;23.39;37.16;99399.50;5094940;28;20366;-50
2023/03/09 11:04:23;;;;;;;186.35;130.48;;;;;;;23.37;37.12;99404.72;5094609;28;20028;-49
2023/03/09 11:06:54;;;;;;;169.93;114.18;;;;;;;23.45;37.35;99400.31;5091433;28;20032;-50
2023/03/09 11:09:45;;;;;;;145.02;96.15;;;;;;;23.42;37.03;99394.22;5094311;28;20023;-50
2023/03/09 11:12:18;;;;;;;132.10;88.72;;;;;;;23.52;37.00;99399.34;5094291;28;20174;-49
2023/03/09 11:14:53;;;;;;;126.80;82.03;;;;;;;23.64;36.94;99385.28;5090857;28;20027;-53
2023/03/09 11:17:39;;;;;;;;;;;;;;;23.88;36.36;99385.03;5090400;28;20031;-49
2023/03/09 11:20:28;;;;;;;123.85;76.55;;;;;;;23.77;36.51;99383.41;5094341;28;20034;-49
2023/03/09 11:23:02;;;;;;;128.65;80.40;;;;;;;23.74;36.82;99375.56;5094425;28;20032;-48
2023/03/09 11:26:08;;;;;;;135.82;84.00;;;;;;;23.82;37.22;99384.22;5089455;28;20038;-49
2023/03/09 11:28:39;;;;;;;142.57;90.03;;;;;;;23.88;37.19;99385.03;5081023;28;20036;-48
2023/03/09 11:31:13;;;;;;;145.25;91.40;;;;;;;23.85;37.16;99382.44;5094347;28;20035;-50
2023/03/09 11:33:41;;;;;;;149.80;94.53;;;;;;;23.83;37.48;99375.47;5094345;28;20026;-49
2023/03/09 11:36:13;;;;;;;147.98;94.47;;;;;;;23.86;37.69;99378.94;5093408;28;20113;-49
2023/03/09 11:38:45;;;;;;;145.13;94.53;;;;;;;23.79;37.49;99373.78;5093738;28;20392;-52
2023/03/09 11:41:34;;;;;;;150.32;96.18;;;;;;;23.90;37.52;99376.28;5094240;28;20052;-49
2023/03/09 11:44:09;;;;;;;149.13;96.30;;;;;;;23.84;38.02;99365.88;5093581;28;20044;-48
2023/03/09 11:46:37;;;;;;;166.18;107.03;;;;;;;23.89;37.76;99368.41;5090193;28;20046;-49
2023/03/09 11:49:12;;;;;;;168.15;102.82;;;;;;;23.90;38.05;99359.69;5090156;28;20553;-50
2023/03/09 11:51:45;;;;;;;174.10;109.38;;;;;;;23.99;37.62;99354.38;5085769;28;20115;-48
2023/03/09 11:54:26;;;;;;;162.60;106.40;;;;;;;23.99;37.72;99362.25;5092736;28;20540;-50
2023/03/09 11:56:55;;;;;;;167.00;109.88;;;;;;;24.01;37.78;99349.97;5094202;28;20028;-48
2023/03/09 11:59:29;;;;;;;173.45;111.38;;;;;;;23.95;37.98;99350.88;5088856;28;20519;-50
2023/03/09 12:02:00;;;;;;;173.25;110.22;;;;;;;24.08;37.87;99340.28;5089809;28;20517;-51
2023/03/09 12:04:27;;;;;;;166.60;110.00;;;;;;;24.08;38.32;99330.69;5091481;28;20485;-50
2023/03/09 12:06:55;;;;;;;171.98;113.18;;;;;;;24.14;37.95;99326.25;5092379;28;20028;-50
2023/03/09 12:09:40;;;;;;;182.25;119.80;;;;;;;24.23;38.16;99326.09;5087543;28;20046;-51
2023/03/09 12:12:47;;;;;;;177.52;121.50;;;;;;;24.23;38.00;99308.66;5091148;28;20028;-51
2023/03/09 12:15:37;;;;;;;185.45;122.05;;;;;;;24.38;37.79;99302.31;5085620;28;20035;-53
2023/03/09 12:18:07;;;;;;;200.98;126.28;;;;;;;24.38;37.97;99286.56;5089498;28;20077;-50
2023/03/09 12:20:40;;;;;;;177.95;118.00;;;;;;;24.40;38.11;99278.72;5091171;28;20025;-53
2023/03/09 12:23:35;;;;;;;180.88;119.15;;;;;;;24.43;38.04;99271.66;5090506;28;20036;-50
2023/03/09 12:26:04;;;;;;;177.95;118.68;;;;;;;24.45;37.99;99269.00;5091042;28;20067;-53
2023/03/09 12:28:32;;;;;;;173.27;114.90;;;;;;;24.47;37.74;99261.13;5088110;28;20055;-52
2023/03/09 12:31:00;;;;;;;187.52;121.72;;;;;;;24.45;38.08;99260.28;5090417;28;20060;-51
2023/03/09 12:33:47;;;;;;;184.75;123.43;;;;;;;24.46;38.08;99260.25;5092126;28;20771;-49
2023/03/09 12:36:34;;;;;;;191.20;121.13;;;;;;;24.49;37.82;99257.56;5105498;22;20057;-51
2023/03/09 12:39:24;;;;;;;198.38;129.68;;;;;;;24.54;38.01;99241.75;5047792;28;20482;-50
2023/03/09 12:42:03;;;;;;;199.20;129.43;;;;;;;24.51;38.45;99241.81;5051461;28;20123;-51
2023/03/09 12:44:57;;;;;;;201.75;133.95;;;;;;;24.57;38.04;99228.63;5050869;28;20055;-52
2023/03/09 12:47:25;;;;;;;209.95;143.48;;;;;;;24.58;38.36;99231.19;5041459;28;20108;-51
2023/03/09 12:49:54;;;;;;;208.88;141.20;;;;;;;24.59;38.42;99218.97;5052532;28;20021;-52
2023/03/09 12:52:31;;;;;;;208.60;141.25;;;;;;;24.63;38.10;99220.66;5051525;28;20116;-53
2023/03/09 12:55:03;;;;;;;216.57;142.40;;;;;;;24.65;38.10;99215.38;5045407;28;20099;-52
2023/03/09 12:57:32;;;;;;;213.35;141.65;;;;;;;24.68;38.34;99220.56;5048598;28;20029;-54
2023/03/09 13:00:19;;;;;;;212.20;140.50;;;;;;;24.70;38.21;99224.06;5051369;28;20071;-54
2023/03/09 13:02:56;;;;;;;210.63;141.70;;;;;;;24.65;38.30;99226.75;5051854;28;20025;-51
2023/03/09 13:05:29;;;;;;;228.05;144.95;;;;;;;24.67;38.72;99230.19;5044325;28;20359;-52
2023/03/09 13:08:04;;;;;;;219.15;149.48;;;;;;;24.64;38.51;99221.50;5048433;28;20446;-54
2023/03/09 13:10:32;;;;;;;;;;;;;;;24.88;38.05;99225.47;5050204;28;20036;-55
2023/03/09 13:13:28;;;;;;;216.02;141.27;;;;;;;24.86;38.01;99232.50;5051819;28;19913;-51
2023/03/09 13:16:34;;;;;;;195.50;130.55;;;;;;;24.92;37.81;99237.66;5047515;28;20048;-53
2023/03/09 13:19:23;;;;;;;187.05;116.25;;;;;;;24.92;37.47;99242.00;5048631;28;20498;-54
2023/03/09 13:22:00;;;;;;;175.98;109.78;;;;;;;24.82;37.84;99250.06;5051463;28;20111;-52
2023/03/09 13:24:38;;;;;;;173.18;110.20;;;;;;;24.83;37.78;99254.41;5044606;28;20032;-51
2023/03/09 13:27:11;;;;;;;166.45;107.68;;;;;;;24.85;37.68;99251.75;5049832;28;20029;-51
2023/03/09 13:30:00;;;;;;;166.95;103.60;;;;;;;24.85;37.38;99249.13;5046177;28;20541;-52
2023/03/09 13:32:35;;;;;;;158.05;102.25;;;;;;;24.82;37.81;99249.22;5045437;28;20092;-51
2023/03/09 13:35:24;;;;;;;163.93;108.25;;;;;;;24.79;37.65;99251.88;5050716;28;20827;-51
2023/03/09 13:37:55;;;;;;;171.27;108.40;;;;;;;24.68;37.72;99255.50;5049342;28;20043;-50
2023/03/09 13:40:42;;;;;;;164.35;104.28;;;;;;;24.73;37.88;99258.09;5053036;28;20037;-51
2023/03/09 13:43:31;;;;;;;156.77;103.35;;;;;;;24.86;37.59;99251.75;5052665;28;20091;-54
2023/03/09 13:46:03;;;;;;;168.63;107.43;;;;;;;24.86;37.52;99256.09;5052332;28;20498;-50
2023/03/09 13:48:35;;;;;;;164.90;104.30;;;;;;;24.83;37.52;99254.41;5053172;28;20107;-54
2023/03/09 13:51:03;;;;;;;158.30;102.20;;;;;;;24.82;37.70;99257.94;5051462;28;20025;-50
2023/03/09 13:53:32;;;;;;;153.70;102.15;;;;;;;24.77;37.67;99262.38;5051313;28;20127;-50
2023/03/09 13:56:03;;;;;;;165.20;106.68;;;;;;;24.81;37.54;99257.97;5034769;28;20115;-51
2023/03/09 13:58:42;;;;;;;164.25;105.90;;;;;;;24.86;37.60;99262.25;5051210;28;20025;-50
2023/03/09 14:01:21;;;;;;;158.63;104.05;;;;;;;24.80;38.01;99254.47;5052730;28;20025;-52
2023/03/09 14:03:51;;;;;;;154.60;98.93;;;;;;;24.92;37.61;99250.78;5052442;28;20025;-50
2023/03/09 14:06:35;;;;;;;146.38;93.72;;;;;;;24.85;37.84;99254.38;5052360;28;20071;-50
2023/03/09 14:09:17;;;;;;;147.63;96.97;;;;;;;24.93;37.39;99262.09;5052642;28;20528;-49
2023/03/09 14:11:46;;;;;;;156.10;97.15;;;;;;;24.91;37.21;99251.66;5050763;28;20021;-50
2023/03/09 14:14:20;;;;;;;155.23;102.05;;;;;;;24.89;37.59;99245.56;5051030;28;20491;-54
2023/03/09 14:16:50;;;;;;;158.77;104.32;;;;;;;24.91;37.29;99250.78;5052463;28;20060;-50
2023/03/09 14:19:22;;;;;;;160.18;100.32;;;;;;;24.81;37.60;99247.47;5049717;28;20054;-50
2023/03/09 14:21:53;;;;;;;153.52;99.90;;;;;;;24.73;37.87;99245.00;5050368;28;20045;-51
2023/03/09 14:24:21;;;;;;;158.27;101.13;;;;;;;24.86;37.37;99240.38;5036117;28;20050;-51
2023/03/09 14:26:51;;;;;;;159.88;101.80;;;;;;;24.92;37.18;99242.00;4988896;28;20031;-51
2023/03/09 14:29:32;;;;;;;155.95;102.15;;;;;;;24.86;37.64;99238.63;4990372;28;20026;-52
2023/03/09 14:32:29;;;;;;;152.48;99.57;;;;;;;24.93;37.52;99238.50;4994037;28;20034;-53
2023/03/09 14:35:01;;;;;;;152.25;95.88;;;;;;;24.87;37.54;99237.75;4992424;28;20384;-49
2023/03/09 14:37:31;;;;;;;145.73;97.18;;;;;;;24.86;37.21;99233.38;4994972;28;20049;-50
2023/03/09 14:40:08;;;;;;;164.75;99.07;;;;;;;24.85;37.69;99236.91;4994767;28;20027;-51
2023/03/09 14:42:36;;;;;;;153.80;99.28;;;;;;;24.85;37.43;99230.78;4991070;28;20117;-52
2023/03/09 14:45:22;;;;;;;153.15;99.80;;;;;;;24.89;37.56;99235.06;4994643;28;20027;-51
2023/03/09 14:48:01;;;;;;;148.07;94.60;;;;;;;24.93;37.44;99231.50;4995873;28;20022;-54
2023/03/09 14:50:29;;;;;;;149.93;96.30;;;;;;;24.89;37.56;99227.22;4994661;28;20026;-50
2023/03/09 14:52:57;;;;;;;153.52;97.80;;;;;;;24.93;37.49;99239.38;4993693;28;20472;-52
2023/03/09 14:55:25;;;;;;;149.57;97.80;;;;;;;24.89;37.31;99235.06;4995558;28;20080;-51
2023/03/09 14:57:53;;;;;;;138.85;92.00;;;;;;;24.86;37.46;99232.50;4995645;28;20022;-50
2023/03/09 15:00:24;;;;;;;143.45;97.30;;;;;;;24.80;37.76;99230.88;4994315;28;20034;-52
2023/03/09 15:02:53;;;;;;;149.82;96.30;;;;;;;24.84;37.65;99227.31;4993395;28;20115;-51
2023/03/09 15:05:23;;;;;;;140.85;95.07;;;;;;;24.80;37.46;99211.66;4995483;28;20064;-50
2023/03/09 15:07:52;;;;;;;147.98;97.18;;;;;;;24.84;37.60;99221.19;4995072;28;20037;-50
2023/03/09 15:10:21;;;;;;;146.30;99.50;;;;;;;24.85;37.74;99220.28;4994835;28;20034;-51
2023/03/09 15:12:50;;;;;;;150.57;97.03;;;;;;;24.91;37.53;99224.53;4976176;28;20046;-53
2023/03/09 15:15:25;;;;;;;146.85;96.75;;;;;;;24.95;37.71;99221.88;4995494;28;20081;-51
2023/03/09 15:17:55;;;;;;;144.50;93.53;;;;;;;24.90;37.85;99220.22;4995327;28;20045;-53
2023/03/09 15:20:25;;;;;;;151.98;98.30;;;;;;;24.91;37.21;99216.69;4995080;28;20034;-51
2023/03/09 15:22:52;;;;;;;149.15;98.43;;;;;;;24.99;37.66;99214.78;4992690;28;20035;-51
2023/03/09 15:25:20;;;;;;;148.63;94.53;;;;;;;24.95;37.65;99208.75;4994905;28;20425;-53
2023/03/09 15:27:49;;;;;;;143.23;93.47;;;;;;;24.85;37.86;99210.69;4995079;28;20041;-50
2023/03/09 15:30:18;;;;;;;144.30;95.35;;;;;;;24.94;37.41;99199.16;4994681;28;20027;-53
2023/03/09 15:32:47;;;;;;;151.43;95.80;;;;;;;24.87;37.90;99218.50;4992313;28;20106;-53
2023/03/09 15:35:18;;;;;;;138.95;88.75;;;;;;;24.93;37.56;99218.41;4994782;28;20478;-52
2023/03/09 15:37:47;;;;;;;134.85;88.20;;;;;;;24.92;37.55;99207.91;4995033;28;20085;-52
2023/03/09 15:40:17;;;;;;;130.15;82.40;;;;;;;24.95;37.54;99221.88;4993555;28;20529;-50
2023/03/09 15:42:46;;;;;;;136.75;85.18;;;;;;;24.89;37.79;99211.47;4988819;28;20335;-49
2023/03/09 15:45:16;;;;;;;138.05;85.32;;;;;;;24.91;37.55;99207.06;4991064;28;20091;-50
2023/03/09 15:47:45;;;;;;;144.68;91.07;;;;;;;24.94;37.33;99200.88;4994886;28;20392;-52
2023/03/09 15:50:13;;;;;;;145.18;91.38;;;;;;;24.91;37.67;99201.81;4993944;28;20034;-50
2023/03/09 15:52:42;;;;;;;147.65;95.95;;;;;;;24.89;37.90;99190.50;4992915;28;20439;-50
2023/03/09 15:55:11;;;;;;;150.20;93.82;;;;;;;24.90;37.71;99197.47;4994014;28;20034;-52
2023/03/09 15:57:38;;;;;;;146.23;95.32;;;;;;;24.86;37.57;99196.66;4994487;28;20030;-53
2023/03/09 16:00:08;;;;;;;148.05;92.25;;;;;;;24.93;37.87;99200.03;4994142;28;20042;-52
2023/03/09 16:02:37;;;;;;;154.88;102.35;;;;;;;24.92;37.86;99205.28;4993184;28;20501;-50
2023/03/09 16:05:05;;;;;;;148.55;99.40;;;;;;;24.87;37.74;99203.66;4992717;28;20080;-50
2023/03/09 16:07:33;;;;;;;156.43;103.82;;;;;;;24.92;37.82;99197.44;4993043;28;20491;-50
2023/03/09 16:10:01;;;;;;;158.70;105.38;;;;;;;24.91;37.70;99191.34;4993835;28;20547;-52
2023/03/09 16:12:30;;;;;;;169.13;114.60;;;;;;;24.81;37.97;99189.78;4994102;28;20442;-53
2023/03/09 16:14:57;;;;;;;156.63;106.57;;;;;;;24.88;37.95;99194.00;5004310;28;20022;-53
2023/03/09 16:17:24;;;;;;;163.05;105.65;;;;;;;24.83;37.99;99186.22;4993994;28;20333;-50
2023/03/09 16:19:52;;;;;;;170.43;113.07;;;;;;;24.97;37.66;99179.84;4993803;28;20058;-50
2023/03/09 16:22:19;;;;;;;174.07;111.88;;;;;;;24.99;37.47;99178.91;4993589;28;20554;-50
2023/03/09 16:24:47;;;;;;;169.68;112.68;;;;;;;24.98;37.71;99173.72;4989936;28;20096;-50
2023/03/09 16:27:16;;;;;;;173.20;113.28;;;;;;;24.95;37.67;99169.41;4992887;28;20039;-50
2023/03/09 16:29:44;;;;;;;165.30;106.18;;;;;;;24.84;38.11;99166.09;4993352;28;20538;-53
2023/03/09 16:32:13;;;;;;;156.73;107.13;;;;;;;24.92;37.82;99148.47;4993319;28;20037;-52
2023/03/09 16:34:41;;;;;;;169.60;109.78;;;;;;;24.94;37.93;99166.78;4989146;28;20039;-51
2023/03/09 16:37:08;;;;;;;153.85;101.20;;;;;;;24.92;37.94;99160.69;4993888;28;20072;-50
2023/03/09 16:39:37;;;;;;;165.02;103.97;;;;;;;24.82;38.11;99165.28;4993695;28;20030;-52
2023/03/09 16:42:06;;;;;;;170.45;107.80;;;;;;;24.98;37.89;99164.09;4993236;28;20143;-51
2023/03/09 16:44:34;;;;;;;160.23;103.95;;;;;;;24.94;37.75;99153.66;4989199;28;20081;-53
2023/03/09 16:47:04;;;;;;;169.35;104.75;;;;;;;24.91;38.16;99154.59;4993417;28;20054;-50
2023/03/09 16:49:33;;;;;;;161.75;102.30;;;;;;;24.82;38.09;99139.91;4992471;28;20031;-50
2023/03/09 16:52:01;;;;;;;157.93;101.85;;;;;;;24.98;37.83;99143.13;4992997;28;20037;-50
2023/03/09 16:54:30;;;;;;;160.57;101.35;;;;;;;25.00;38.00;99151.78;4988753;28;20030;-48
2023/03/09 16:56:58;;;;;;;155.43;98.95;;;;;;;24.94;37.76;99140.56;4992999;28;20033;-52
2023/03/09 16:59:26;;;;;;;164.40;102.95;;;;;;;25.00;37.74;99141.28;4992104;28;20027;-49
2023/03/09 17:01:56;;;;;;;163.70;104.82;;;;;;;24.94;37.92;99138.81;4993051;28;20467;-52
2023/03/09 17:04:24;;;;;;;150.38;101.18;;;;;;;24.92;37.86;99142.34;4988624;28;20411;-50
2023/03/09 17:06:52;;;;;;;162.38;102.20;;;;;;;24.94;37.94;99135.31;4991189;28;20077;-53
2023/03/09 17:09:19;;;;;;;151.48;96.10;;;;;;;24.96;37.50;99123.91;4991949;28;20096;-49
2023/03/09 17:11:48;;;;;;;160.75;100.70;;;;;;;25.00;37.44;99122.94;4992837;28;20049;-52
2023/03/09 17:14:16;;;;;;;151.70;98.18;;;;;;;24.98;37.39;99126.50;4987896;28;20087;-49
2023/03/09 17:16:45;;;;;;;153.98;98.63;;;;;;;25.00;37.25;99109.81;4987640;28;20433;-49
2023/03/09 17:19:12;;;;;;;151.90;96.10;;;;;;;24.99;37.47;99107.25;4987118;28;20031;-50
2023/03/09 17:21:41;;;;;;;141.75;89.22;;;;;;;24.92;37.25;99098.63;4992785;28;20030;-50
2023/03/09 17:24:08;;;;;;;146.95;93.60;;;;;;;25.00;37.34;99101.09;4991904;28;20542;-50
2023/03/09 17:26:36;;;;;;;146.18;92.72;;;;;;;24.97;37.29;99080.16;4991643;28;20037;-53
2023/03/09 17:29:04;;;;;;;136.43;87.68;;;;;;;24.98;37.52;99084.53;4992911;28;20587;-50
2023/03/09 17:31:31;;;;;;;134.88;86.93;;;;;;;25.01;37.15;99079.22;4988711;28;20444;-50
2023/03/09 17:33:58;;;;;;;139.90;87.70;;;;;;;24.93;37.42;99089.00;4990504;28;20026;-51
2023/03/09 17:36:26;;;;;;;149.85;93.80;;;;;;;25.08;37.34;99072.06;4992655;28;20038;-52
2023/03/09 17:38:55;;;;;;;144.15;89.50;;;;;;;24.99;37.10;99075.75;4992286;28;20475;-53
2023/03/09 17:41:23;;;;;;;155.23;94.75;;;;;;;25.00;37.23;99073.09;4992652;28;20030;-49
2023/03/09 17:43:51;;;;;;;152.45;98.78;;;;;;;24.91;37.61;99081.16;4989938;28;20035;-51
2023/03/09 17:46:19;;;;;;;161.63;102.60;;;;;;;24.88;37.52;99082.09;4992817;28;20033;-50
2023/03/09 17:48:46;;;;;;;156.10;97.82;;;;;;;24.85;37.78;99083.91;4992421;28;20026;-50
2023/03/09 17:51:16;;;;;;;162.40;101.00;;;;;;;24.86;37.46;99076.03;4992875;28;20447;-48
2023/03/09 17:53:44;;;;;;;163.85;102.10;;;;;;;24.96;37.62;99083.69;4991036;28;20394;-51
2023/03/09 17:56:14;;;;;;;167.73;102.68;;;;;;;24.97;37.64;99069.69;4992697;28;20278;-51
2023/03/09 17:58:43;;;;;;;168.82;104.93;;;;;;;24.87;38.02;99076.88;4991422;28;20031;-52
2023/03/09 18:01:13;;;;;;;179.45;111.45;;;;;;;24.89;37.62;99080.34;4988002;28;20033;-50
2023/03/09 18:03:41;;;;;;;174.93;108.47;;;;;;;24.88;37.95;99061.13;4991599;28;20045;-52
2023/03/09 18:06:13;;;;;;;172.55;107.95;;;;;;;24.96;37.61;99055.72;4993259;28;20026;-53
2023/03/09 18:08:40;;;;;;;190.65;113.60;;;;;;;24.97;37.93;99061.81;4991387;28;20073;-50
2023/03/09 18:11:14;;;;;;;179.05;109.35;;;;;;;24.97;37.58;99061.81;4996359;28;20487;-50
2023/03/09 18:13:43;;;;;;;181.90;108.47;;;;;;;24.88;37.83;99055.00;4994082;28;20034;-51
2023/03/09 18:16:11;;;;;;;191.40;115.07;;;;;;;24.87;38.11;99055.91;4996253;28;20031;-50
2023/03/09 18:18:39;;;;;;;191.23;116.72;;;;;;;24.79;37.89;99052.59;4996494;28;20026;-51
2023/03/09 18:21:08;;;;;;;180.85;109.03;;;;;;;24.88;37.63;99052.38;4995977;28;20027;-50
2023/03/09 18:23:38;;;;;;;199.75;114.55;;;;;;;24.80;37.90;99049.06;4993468;28;20039;-50
2023/03/09 18:26:06;;;;;;;175.98;110.35;;;;;;;24.87;37.86;99055.91;4995875;28;20041;-49
2023/03/09 18:28:34;;;;;;;195.27;117.35;;;;;;;24.85;37.96;99044.56;4996053;28;20030;-51
2023/03/09 18:31:04;;;;;;;206.95;119.57;;;;;;;24.79;38.09;99053.44;4996180;28;20023;-52
2023/03/09 18:33:31;;;;;;;193.13;113.05;;;;;;;24.74;37.93;99050.03;4994947;28;20045;-51
2023/03/09 18:36:02;;;;;;;196.10;114.43;;;;;;;24.83;38.26;99051.59;4994724;28;20120;-49
2023/03/09 18:38:29;;;;;;;197.98;120.45;;;;;;;24.78;38.18;99040.38;4996215;28;20030;-49
2023/03/09 18:40:57;;;;;;;199.80;120.85;;;;;;;24.69;38.76;99044.00;4994619;28;20057;-50
2023/03/09 18:43:24;;;;;;;180.27;108.68;;;;;;;24.75;38.22;99033.41;4994815;28;20105;-51
2023/03/09 18:45:51;;;;;;;178.82;111.72;;;;;;;24.76;37.95;99043.00;4995762;28;20038;-50
2023/03/09 18:48:18;;;;;;;173.48;107.70;;;;;;;24.66;38.29;99047.53;4995606;28;20076;-51
2023/03/09 18:50:48;;;;;;;188.70;113.57;;;;;;;24.64;38.45;99041.47;4995524;28;20045;-53
2023/03/09 18:53:16;;;;;;;184.70;111.60;;;;;;;24.71;38.32;99016.03;4978016;28;20030;-50
2023/03/09 18:55:44;;;;;;;179.45;108.90;;;;;;;24.65;38.31;99034.47;4994480;28;20122;-50
2023/03/09 18:58:11;;;;;;;186.45;116.07;;;;;;;24.68;38.17;99043.13;4994372;28;20042;-50
2023/03/09 19:00:39;;;;;;;175.43;107.55;;;;;;;24.68;38.27;99039.66;4995834;28;20025;-51
2023/03/09 19:03:06;;;;;;;184.50;110.15;;;;;;;24.71;37.95;99040.47;4994088;28;20023;-49
2023/03/09 19:05:33;;;;;;;163.57;103.07;;;;;;;24.62;38.35;99035.41;4995559;28;20403;-53
2023/03/09 19:08:01;;;;;;;165.65;101.18;;;;;;;24.53;38.14;99031.22;4995612;28;20030;-50
2023/03/09 19:10:28;;;;;;;175.68;108.55;;;;;;;24.65;38.29;99032.72;4995039;28;20490;-50
2023/03/09 19:12:56;;;;;;;162.77;101.38;;;;;;;24.68;38.01;99035.25;4993509;28;20057;-50
2023/03/09 19:15:23;;;;;;;167.18;102.75;;;;;;;24.67;37.63;99027.44;4995285;28;20029;-51
2023/03/09 19:17:50;;;;;;;162.55;104.32;;;;;;;24.61;38.05;99033.69;4994891;28;20023;-52
2023/03/09 19:20:17;;;;;;;166.20;102.10;;;;;;;24.53;38.08;99020.72;4995248;28;20034;-51
2023/03/09 19:22:45;;;;;;;174.48;107.28;;;;;;;24.54;37.90;99026.81;4981641;28;20027;-51
2023/03/09 19:25:14;;;;;;;167.52;106.07;;;;;;;24.35;38.01;98985.25;4974441;28;20069;-50
2023/03/09 19:27:41;;;;;;;161.23;103.03;;;;;;;24.59;38.06;99014.50;4975052;28;20023;-49
2023/03/09 19:30:09;;;;;;;167.70;104.72;;;;;;;24.51;37.64;99017.25;4974398;28;20034;-49
2023/03/09 19:32:36;;;;;;;173.48;108.78;;;;;;;24.49;38.17;99016.44;4986637;28;20392;-50
2023/03/09 19:35:04;;;;;;;170.85;105.70;;;;;;;24.48;37.76;99012.06;4988017;28;20070;-50
2023/03/09 19:37:32;;;;;;;159.60;103.57;;;;;;;24.47;37.79;99004.25;4983213;28;20388;-49
2023/03/09 19:40:00;;;;;;;166.25;105.50;;;;;;;24.37;37.61;98985.22;4974407;28;20488;-52
2023/03/09 19:42:28;;;;;;;163.93;106.55;;;;;;;24.47;37.82;98999.88;4976254;28;20035;-49
2023/03/09 19:44:57;;;;;;;166.55;109.93;;;;;;;24.41;37.94;99007.84;4976239;28;20038;-51
2023/03/09 19:47:24;;;;;;;166.40;104.82;;;;;;;24.49;37.63;99005.94;4976241;28;20037;-51
2023/03/09 19:49:52;;;;;;;174.38;109.35;;;;;;;24.49;37.65;99002.47;4990469;28;20031;-51
2023/03/09 19:52:21;;;;;;;165.80;103.80;;;;;;;24.43;37.54;99011.28;4976124;28;20030;-49
2023/03/09 19:54:49;;;;;;;157.05;102.57;;;;;;;24.45;37.37;99013.91;4976140;28;20125;-49
2023/03/09 19:57:18;;;;;;;172.93;110.95;;;;;;;24.38;37.66;99026.28;4975602;28;20034;-49
2023/03/09 19:59:47;;;;;;;170.25;108.10;;;;;;;24.34;38.21;99014.97;4975808;28;20026;-49
2023/03/09 20:02:15;;;;;;;175.77;112.68;;;;;;;24.37;37.66;99014.91;4975694;28;20388;-49
2023/03/09 20:04:42;;;;;;;190.00;114.50;;;;;;;24.33;38.27;99007.16;4975388;28;20109;-51
2023/03/09 20:07:10;;;;;;;177.38;110.25;;;;;;;24.35;37.98;98995.72;4975797;28;20504;-51
2023/03/09 20:09:37;;;;;;;182.15;118.75;;;;;;;24.33;38.44;98987.03;4990130;28;20038;-52
2023/03/09 20:12:06;;;;;;;181.63;117.80;;;;;;;24.34;38.03;99009.72;4975471;28;20038;-51
2023/03/09 20:14:34;;;;;;;175.02;115.75;;;;;;;24.34;38.07;99001.84;4975302;28;20057;-49
2023/03/09 20:17:03;;;;;;;181.70;119.20;;;;;;;24.34;37.86;99009.72;4974303;28;20022;-50
2023/03/09 20:19:30;;;;;;;190.68;119.03;;;;;;;24.39;37.68;99002.63;4978289;28;20484;-49
2023/03/09 20:21:59;;;;;;;192.00;119.15;;;;;;;24.42;37.63;98992.09;4994180;28;20018;-51
2023/03/09 20:24:26;;;;;;;177.80;116.72;;;;;;;24.46;37.64;98994.66;4984576;28;20030;-51
2023/03/09 20:26:57;;;;;;;185.10;119.18;;;;;;;24.36;37.90;99007.09;4987933;28;21199;-51
2023/03/09 20:29:27;;;;;;;195.13;126.65;;;;;;;24.33;38.20;99002.75;4993063;28;20042;-53
